Time;durP1;ratioP1;P1;durP2;ratioP2;P2;SDS_P1;SDS_P2;PMS_P1;PMS_P2;Temp;Humidity;BMP_temperature;BMP_pressure;BME280_temperature;BME280_humidity;BME280_pressure;Samples;Min_cycle;Max_cycle;Signal;HPM_P1;HPM_P2
2023/01/26 00:01:32;;;;;;;25.40;11.90;;;-0.50;99.90;;;;;;5081890;28;20027;-76
2023/01/26 00:03:59;;;;;;;27.27;11.98;;;-0.50;99.90;;;;;;5075398;28;20021;-75
2023/01/26 00:06:25;;;;;;;24.48;11.73;;;-0.60;99.90;;;;;;5046898;28;20024;-76
2023/01/26 00:08:53;;;;;;;24.30;10.82;;;-0.70;99.90;;;;;;5082514;28;20097;-75
2023/01/26 00:11:25;;;;;;;20.88;11.93;;;-0.70;99.90;;;;;;5066482;28;20497;-76
2023/01/26 00:13:52;;;;;;;27.23;11.88;;;-0.70;99.90;;;;;;5073497;28;20031;-74
2023/01/26 00:16:18;;;;;;;23.23;10.65;;;-0.70;99.90;;;;;;5080771;28;20040;-75
2023/01/26 00:18:44;;;;;;;25.48;12.45;;;-0.60;99.90;;;;;;5060829;28;20028;-76
2023/01/26 00:21:16;;;;;;;24.50;11.57;;;-0.70;99.90;;;;;;5079081;28;20086;-76
2023/01/26 00:23:41;;;;;;;22.15;10.32;;;-0.70;99.90;;;;;;5089878;28;20027;-76
2023/01/26 00:26:09;;;;;;;25.13;11.75;;;-0.70;99.90;;;;;;5071540;28;20036;-76
2023/01/26 00:28:38;;;;;;;23.67;10.48;;;-0.70;99.90;;;;;;5086771;28;20073;-76
2023/01/26 00:31:15;;;;;;;21.27;10.32;;;-0.70;99.90;;;;;;5083141;28;20028;-75
2023/01/26 00:33:41;;;;;;;19.67;10.93;;;-0.70;99.90;;;;;;5087110;28;20031;-75
2023/01/26 00:36:09;;;;;;;24.40;12.00;;;-0.70;99.90;;;;;;5082374;28;20032;-75
2023/01/26 00:38:36;;;;;;;24.35;11.02;;;-0.70;99.90;;;;;;5095729;28;20040;-75
2023/01/26 00:41:02;;;;;;;21.52;10.50;;;-0.70;99.90;;;;;;5079541;28;20055;-75
2023/01/26 00:43:28;;;;;;;23.48;10.60;;;-0.70;99.90;;;;;;5080872;28;20034;-75
2023/01/26 00:45:54;;;;;;;23.42;10.43;;;-0.70;99.90;;;;;;5067977;28;20060;-75
2023/01/26 00:48:20;;;;;;;22.25;10.05;;;-0.60;99.90;;;;;;5077223;28;20044;-76
2023/01/26 00:50:48;;;;;;;23.60;11.30;;;-0.60;99.90;;;;;;5083342;28;20024;-77
2023/01/26 00:53:14;;;;;;;23.65;11.45;;;-0.50;99.90;;;;;;5089942;28;20032;-76
2023/01/26 00:55:40;;;;;;;22.05;10.77;;;-0.50;99.90;;;;;;5088742;28;20039;-76
2023/01/26 00:58:07;;;;;;;22.90;10.88;;;-0.60;99.90;;;;;;5088926;28;20439;-75
2023/01/26 01:00:53;;;;;;;24.85;11.27;;;-0.60;99.90;;;;;;5088542;28;20596;-75
2023/01/26 01:03:19;;;;;;;21.25;11.57;;;-0.60;99.90;;;;;;5095175;28;20041;-76
2023/01/26 01:05:46;;;;;;;21.95;11.73;;;-0.60;99.90;;;;;;5087644;28;20024;-76
2023/01/26 01:08:11;;;;;;;24.02;11.90;;;-0.60;99.90;;;;;;5083406;28;20028;-76
2023/01/26 01:10:37;;;;;;;26.13;13.18;;;-0.60;99.90;;;;;;5094033;28;20027;-76
2023/01/26 01:13:04;;;;;;;25.25;12.00;;;-0.50;99.90;;;;;;5064398;28;20032;-76
2023/01/26 01:15:30;;;;;;;24.75;11.68;;;-0.60;99.90;;;;;;5058482;28;20035;-75
2023/01/26 01:17:56;;;;;;;24.90;12.27;;;-0.60;99.90;;;;;;5063730;28;20435;-75
2023/01/26 01:20:22;;;;;;;24.35;12.05;;;-0.60;99.90;;;;;;5067186;28;20442;-75
2023/01/26 01:22:50;;;;;;;24.15;12.20;;;-0.60;99.90;;;;;;5090162;28;20036;-75
2023/01/26 01:25:16;;;;;;;24.75;12.00;;;-0.70;99.90;;;;;;5083363;28;20027;-76
2023/01/26 01:27:42;;;;;;;24.80;11.60;;;-0.70;99.90;;;;;;5088201;28;20076;-76
2023/01/26 01:30:09;;;;;;;24.30;11.52;;;-0.80;99.90;;;;;;5081447;28;20108;-73
2023/01/26 01:32:35;;;;;;;27.38;11.93;;;-0.80;99.90;;;;;;5094769;28;20027;-76
2023/01/26 01:35:01;;;;;;;26.25;11.55;;;-0.80;99.90;;;;;;5074640;28;20024;-76
2023/01/26 01:37:28;;;;;;;24.48;11.55;;;-0.80;99.90;;;;;;5104265;28;20085;-76
2023/01/26 01:39:54;;;;;;;28.58;13.07;;;-0.70;99.90;;;;;;5112740;28;20089;-76
2023/01/26 01:42:20;;;;;;;22.05;10.50;;;-0.80;99.90;;;;;;5094059;28;20040;-75
2023/01/26 01:45:25;;;;;;;26.45;11.80;;;-0.80;99.90;;;;;;5102679;28;20024;-75
2023/01/26 01:47:58;;;;;;;22.02;10.70;;;-0.70;99.90;;;;;;5096301;28;20070;-75
2023/01/26 01:50:25;;;;;;;25.08;12.18;;;-0.70;99.90;;;;;;5097397;28;20669;-76
2023/01/26 01:52:53;;;;;;;23.65;11.85;;;-0.70;99.90;;;;;;5080513;28;20024;-76
2023/01/26 01:55:19;;;;;;;22.02;11.10;;;-0.60;99.90;;;;;;5110458;28;20035;-76
2023/01/26 01:57:52;;;;;;;23.25;11.05;;;-0.60;99.90;;;;;;5100340;28;20028;-75
2023/01/26 02:00:21;;;;;;;24.58;10.68;;;-0.60;99.90;;;;;;5084195;28;20140;-76
2023/01/26 02:03:29;;;;;;;23.08;11.07;;;-0.60;99.90;;;;;;5090879;28;20065;-76
2023/01/26 02:05:57;;;;;;;25.70;10.85;;;-0.60;99.90;;;;;;5088095;28;20062;-76
2023/01/26 02:08:30;;;;;;;22.90;10.80;;;-0.60;99.90;;;;;;5068246;28;20044;-77
2023/01/26 02:11:01;;;;;;;23.05;11.15;;;-0.60;99.90;;;;;;5087114;28;20055;-77
2023/01/26 02:13:28;;;;;;;21.92;10.90;;;-0.60;99.90;;;;;;5082248;28;20115;-76
2023/01/26 02:15:55;;;;;;;21.23;10.07;;;-0.60;99.90;;;;;;5080936;28;20424;-77
2023/01/26 02:18:21;;;;;;;22.08;10.65;;;-0.60;99.90;;;;;;5082311;28;20104;-78
2023/01/26 02:20:55;;;;;;;24.38;11.85;;;-0.60;99.90;;;;;;5075251;28;20373;-76
2023/01/26 02:23:54;;;;;;;23.90;10.75;;;-0.60;99.90;;;;;;5077495;28;20055;-76
2023/01/26 02:26:26;;;;;;;22.55;11.02;;;-0.60;99.90;;;;;;5031100;28;20068;-75
2023/01/26 02:28:53;;;;;;;24.83;11.02;;;-0.60;99.90;;;;;;5087669;28;20024;-76
2023/01/26 02:31:22;;;;;;;21.10;10.30;;;-0.60;99.90;;;;;;5091204;28;20036;-75
2023/01/26 02:33:48;;;;;;;26.20;11.63;;;-0.50;99.90;;;;;;5093689;28;20016;-75
2023/01/26 02:36:26;;;;;;;19.73;10.73;;;-0.50;99.90;;;;;;5091890;28;20027;-77
2023/01/26 02:39:14;;;;;;;25.63;11.98;;;-0.50;99.90;;;;;;5087363;28;20020;-75
2023/01/26 02:44:28;;;;;;;26.90;12.05;;;-0.70;99.90;;;;;;5103020;28;20081;-76
2023/01/26 02:46:53;;;;;;;24.70;12.35;;;-0.80;99.90;;;;;;5091746;28;20051;-77
2023/01/26 02:49:52;;;;;;;28.13;11.88;;;-0.80;99.90;;;;;;5087319;28;20111;-77
2023/01/26 02:52:14;;;;;;;24.63;11.32;;;-0.90;99.90;;;;;;5079822;28;20079;-77
2023/01/26 02:57:28;;;;;;;26.93;11.67;;;-0.80;99.90;;;;;;5078919;28;20040;-77
2023/01/26 02:59:53;;;;;;;23.65;11.93;;;-0.80;99.90;;;;;;5084993;28;20035;-76
2023/01/26 03:02:20;;;;;;;26.67;12.35;;;-0.70;99.90;;;;;;5074942;28;20043;-74
2023/01/26 03:04:46;;;;;;;25.63;11.70;;;-0.80;99.90;;;;;;5088725;28;20119;-77
2023/01/26 03:07:13;;;;;;;27.27;11.88;;;-0.90;99.90;;;;;;5078857;28;20028;-76
2023/01/26 03:09:39;;;;;;;25.58;11.60;;;-0.90;99.90;;;;;;5086661;28;20392;-77
2023/01/26 03:12:07;;;;;;;27.98;12.73;;;-0.90;99.90;;;;;;5089807;28;20434;-76
2023/01/26 03:14:35;;;;;;;26.95;12.00;;;-0.80;99.90;;;;;;5077752;28;20071;-75
2023/01/26 03:17:01;;;;;;;26.77;12.68;;;-0.80;99.90;;;;;;5089024;28;20088;-77
2023/01/26 03:28:03;;;;;;;26.47;13.30;;;-0.80;99.90;;;;;;5039099;28;20031;-76
2023/01/26 03:30:29;;;;;;;28.42;13.27;;;-0.80;99.90;;;;;;5072098;28;20040;-75
2023/01/26 03:32:55;;;;;;;29.25;13.18;;;-0.80;99.90;;;;;;5084522;28;20536;-75
2023/01/26 03:35:21;;;;;;;31.35;13.63;;;-0.90;99.90;;;;;;5079624;28;20032;-75
2023/01/26 03:37:53;;;;;;;28.33;12.60;;;-0.90;99.90;;;;;;5072152;28;20035;-76
2023/01/26 03:56:52;;;;;;;29.13;12.93;;;-1.00;99.90;;;;;;5073924;28;20020;-75
2023/01/26 03:59:36;;;;;;;28.30;11.68;;;-1.00;99.90;;;;;;5094576;28;20036;-75
2023/01/26 04:10:27;;;;;;;25.00;11.73;;;-1.10;99.90;;;;;;5086258;28;20525;-75
2023/01/26 04:21:28;;;;;;;28.30;12.07;;;-0.90;99.90;;;;;;5085445;28;20266;-76
2023/01/26 04:23:56;;;;;;;28.42;12.70;;;-1.00;99.90;;;;;;5066628;28;20667;-76
2023/01/26 04:26:25;;;;;;;29.08;12.80;;;-1.00;99.90;;;;;;5082755;28;20032;-76
2023/01/26 04:28:52;;;;;;;27.80;12.85;;;-1.00;99.90;;;;;;5047284;28;20044;-77
2023/01/26 04:31:18;;;;;;;25.20;12.20;;;-1.00;99.90;;;;;;5077964;28;20021;-77
2023/01/26 04:33:47;;;;;;;29.92;11.23;;;-1.00;99.90;;;;;;5069064;28;20660;-77
2023/01/26 04:36:13;;;;;;;28.45;12.73;;;-1.00;99.90;;;;;;5085295;28;20400;-76
2023/01/26 04:38:44;;;;;;;28.02;12.55;;;-1.00;99.90;;;;;;5087340;28;20508;-76
2023/01/26 04:41:12;;;;;;;27.63;12.40;;;-1.10;99.90;;;;;;5079418;28;20119;-76
2023/01/26 04:43:43;;;;;;;30.83;12.75;;;-1.10;99.90;;;;;;5076615;28;20050;-76
2023/01/26 04:46:10;;;;;;;31.52;13.38;;;-1.10;99.90;;;;;;5075469;28;20117;-76
2023/01/26 04:48:39;;;;;;;29.73;12.98;;;-1.10;99.90;;;;;;5097847;28;20077;-76
2023/01/26 04:51:10;;;;;;;25.92;12.65;;;-1.10;99.90;;;;;;5079589;28;20020;-76
2023/01/26 04:53:36;;;;;;;28.88;12.27;;;-1.10;99.90;;;;;;5088123;28;20062;-77
2023/01/26 04:56:03;;;;;;;31.42;13.73;;;-1.20;99.90;;;;;;5079014;28;20107;-75
2023/01/26 04:58:29;;;;;;;27.50;12.70;;;-1.20;99.90;;;;;;5089492;28;20052;-75
2023/01/26 05:00:56;;;;;;;26.67;12.02;;;-1.10;99.90;;;;;;5071417;28;20050;-75
2023/01/26 05:03:24;;;;;;;28.55;12.52;;;-1.00;99.90;;;;;;5097026;28;20032;-76
2023/01/26 05:05:52;;;;;;;25.92;11.20;;;-1.00;99.90;;;;;;5098496;28;20031;-76
2023/01/26 05:08:21;;;;;;;23.88;11.45;;;-1.00;99.90;;;;;;5088210;28;20574;-75
2023/01/26 05:10:50;;;;;;;26.25;12.25;;;-1.10;99.90;;;;;;5083434;28;20111;-76
2023/01/26 05:13:23;;;;;;;26.75;12.02;;;-1.00;99.90;;;;;;5084550;28;20047;-76
2023/01/26 05:16:04;;;;;;;26.08;11.48;;;-1.00;99.90;;;;;;5081615;28;20043;-77
2023/01/26 05:18:54;;;;;;;26.02;12.02;;;-1.10;99.90;;;;;;5082529;28;20028;-76
2023/01/26 05:21:33;;;;;;;22.52;10.60;;;-1.10;99.90;;;;;;5079837;28;20023;-77
2023/01/26 05:23:59;;;;;;;19.95;9.88;;;-1.20;99.90;;;;;;5055532;28;20483;-77
2023/01/26 05:26:43;;;;;;;23.50;11.10;;;-1.10;99.90;;;;;;5090067;28;20034;-75
2023/01/26 05:29:12;;;;;;;24.83;11.50;;;-1.20;99.90;;;;;;5090360;28;20036;-77
2023/01/26 05:31:39;;;;;;;22.73;11.23;;;-1.10;99.90;;;;;;5087245;28;20032;-76
2023/01/26 05:34:06;;;;;;;23.98;11.20;;;-1.20;99.90;;;;;;5103101;28;20039;-76
2023/01/26 05:36:34;;;;;;;24.48;10.82;;;-1.10;99.90;;;;;;5061765;28;20546;-76
2023/01/26 05:39:00;;;;;;;28.00;11.82;;;-1.10;99.90;;;;;;5095158;28;20596;-76
2023/01/26 05:41:26;;;;;;;26.25;10.88;;;-1.10;99.90;;;;;;5088097;28;20043;-76
2023/01/26 05:44:13;;;;;;;23.15;10.93;;;-1.10;99.90;;;;;;5064141;28;20089;-76
2023/01/26 05:46:46;;;;;;;22.98;10.77;;;-1.00;99.90;;;;;;5072712;28;20478;-76
2023/01/26 05:49:15;;;;;;;26.50;12.18;;;-1.00;99.90;;;;;;5092858;28;20070;-75
2023/01/26 05:51:43;;;;;;;28.00;14.02;;;-1.00;99.90;;;;;;5080302;28;20023;-76
2023/01/26 05:54:10;;;;;;;25.40;12.18;;;-1.00;99.90;;;;;;5079314;28;20028;-76
2023/01/26 05:56:36;;;;;;;24.98;12.40;;;-1.00;99.90;;;;;;5089607;28;20069;-76
2023/01/26 05:59:06;;;;;;;28.70;13.05;;;-1.00;99.90;;;;;;5085986;28;20388;-75
2023/01/26 06:01:32;;;;;;;24.90;11.57;;;-1.00;99.90;;;;;;5097944;28;20035;-76
2023/01/26 06:04:01;;;;;;;29.30;13.45;;;-1.00;99.90;;;;;;5074698;28;20027;-76
2023/01/26 06:06:34;;;;;;;29.13;13.63;;;-1.00;99.90;;;;;;5078823;28;20084;-76
2023/01/26 06:09:19;;;;;;;29.67;13.55;;;-0.90;99.90;;;;;;5090711;28;20090;-76
2023/01/26 06:12:16;;;;;;;22.80;11.88;;;-1.00;99.90;;;;;;5084973;28;20440;-75
2023/01/26 06:15:02;;;;;;;23.23;11.40;;;-1.00;99.90;;;;;;5091894;28;20052;-76
2023/01/26 06:17:42;;;;;;;27.38;12.02;;;-1.00;99.90;;;;;;5093737;28;20031;-76
2023/01/26 06:20:13;;;;;;;26.83;11.13;;;-1.00;99.90;;;;;;5078721;28;20537;-76
2023/01/26 06:22:40;;;;;;;25.10;11.20;;;-1.00;99.90;;;;;;5090031;28;20024;-76
2023/01/26 06:25:06;;;;;;;22.35;11.93;;;-1.00;99.90;;;;;;5081586;28;20023;-76
2023/01/26 06:27:34;;;;;;;23.67;12.00;;;-1.00;99.90;;;;;;5089778;28;20048;-76
2023/01/26 06:30:05;;;;;;;23.92;11.80;;;-1.00;99.90;;;;;;5074587;28;20078;-76
2023/01/26 06:32:32;;;;;;;25.95;11.93;;;-1.00;99.90;;;;;;5070287;28;20027;-75
2023/01/26 06:34:58;;;;;;;23.60;12.23;;;-1.00;99.90;;;;;;5089301;28;20037;-74
2023/01/26 06:37:24;;;;;;;24.25;12.07;;;-1.00;99.90;;;;;;5069274;28;20416;-75
2023/01/26 06:39:51;;;;;;;25.85;12.20;;;-1.00;99.90;;;;;;5073017;28;20032;-75
2023/01/26 06:42:17;;;;;;;26.30;11.52;;;-1.00;99.90;;;;;;5091204;28;20451;-76
2023/01/26 06:44:43;;;;;;;24.08;12.00;;;-1.00;99.90;;;;;;5096184;28;20064;-76
2023/01/26 06:47:11;;;;;;;27.52;12.20;;;-1.10;99.90;;;;;;5089170;28;20515;-76
2023/01/26 06:49:37;;;;;;;28.02;12.65;;;-1.10;99.90;;;;;;5072111;28;20079;-75
2023/01/26 06:52:34;;;;;;;32.40;13.80;;;-1.00;99.90;;;;;;5068076;28;20024;-76
2023/01/26 06:55:21;;;;;;;23.70;11.60;;;-1.00;99.90;;;;;;5082691;28;20024;-75
2023/01/26 06:57:58;;;;;;;28.50;11.90;;;-1.00;99.90;;;;;;5084440;28;20092;-75
2023/01/26 07:00:54;;;;;;;23.38;11.43;;;-1.00;99.90;;;;;;5063468;28;20439;-75
2023/01/26 07:03:27;;;;;;;30.60;12.82;;;-1.00;99.90;;;;;;5071029;28;20054;-75
2023/01/26 07:05:53;;;;;;;29.83;12.38;;;-1.10;99.90;;;;;;5095277;28;20036;-76
2023/01/26 07:08:19;;;;;;;24.15;10.82;;;-1.00;99.90;;;;;;5035882;28;20044;-76
2023/01/26 07:10:45;;;;;;;28.20;11.35;;;-1.00;99.90;;;;;;5083591;28;20391;-76
2023/01/26 07:13:11;;;;;;;28.88;12.30;;;-1.00;99.90;;;;;;5108236;28;20027;-76
2023/01/26 07:15:38;;;;;;;30.23;12.35;;;-0.90;99.90;;;;;;5090649;28;20108;-75
2023/01/26 07:18:04;;;;;;;27.90;11.95;;;-0.90;99.90;;;;;;5091716;28;20024;-76
2023/01/26 07:20:30;;;;;;;27.73;12.60;;;-0.90;99.90;;;;;;5090601;28;20023;-76
2023/01/26 07:22:59;;;;;;;26.45;12.40;;;-0.80;99.90;;;;;;5066614;28;20064;-76
2023/01/26 07:25:26;;;;;;;27.60;11.60;;;-0.90;99.90;;;;;;5087123;28;20028;-75
2023/01/26 07:27:57;;;;;;;27.45;12.52;;;-0.90;99.90;;;;;;5079720;28;20032;-76
2023/01/26 07:30:23;;;;;;;26.48;12.77;;;-0.80;99.90;;;;;;5084121;28;20021;-76
2023/01/26 07:32:50;;;;;;;27.88;12.93;;;-0.80;99.90;;;;;;5082467;28;20045;-76
2023/01/26 07:35:16;;;;;;;32.38;13.40;;;-0.80;99.90;;;;;;5096534;28;20069;-78
2023/01/26 07:37:43;;;;;;;32.28;13.93;;;-0.90;99.90;;;;;;5072858;28;20028;-76
2023/01/26 07:40:09;;;;;;;32.15;14.07;;;-0.90;99.90;;;;;;5075351;28;20074;-76
2023/01/26 07:42:35;;;;;;;28.58;12.57;;;-1.00;99.90;;;;;;5080740;28;20119;-75
2023/01/26 07:45:16;;;;;;;31.02;12.80;;;-1.00;99.90;;;;;;5070597;28;20032;-74
2023/01/26 07:47:43;;;;;;;30.52;13.65;;;-1.00;99.90;;;;;;5071689;28;20092;-75
2023/01/26 07:50:10;;;;;;;33.53;13.40;;;-1.00;99.90;;;;;;5082837;28;20074;-75
2023/01/26 07:52:37;;;;;;;29.52;13.48;;;-1.00;99.90;;;;;;5079038;28;20024;-75
2023/01/26 07:55:03;;;;;;;29.90;12.27;;;-1.00;99.90;;;;;;5080760;28;20066;-75
2023/01/26 07:57:29;;;;;;;28.58;12.77;;;-1.00;99.90;;;;;;5086550;28;20062;-75
2023/01/26 07:59:55;;;;;;;28.38;12.48;;;-1.00;99.90;;;;;;5080685;28;20162;-74
2023/01/26 08:02:21;;;;;;;30.27;12.30;;;-1.00;99.90;;;;;;5078472;28;20496;-74
2023/01/26 08:04:47;;;;;;;27.02;12.43;;;-0.90;99.90;;;;;;5069781;28;20027;-74
2023/01/26 08:07:13;;;;;;;33.67;14.43;;;-0.80;99.90;;;;;;5076518;28;20526;-75
2023/01/26 08:09:39;;;;;;;31.10;13.38;;;-0.80;99.90;;;;;;5079485;28;20451;-75
2023/01/26 08:12:06;;;;;;;30.90;12.52;;;-0.80;99.90;;;;;;5075741;28;20024;-74
2023/01/26 08:14:34;;;;;;;28.75;12.45;;;-0.90;99.90;;;;;;5081506;28;20026;-75
2023/01/26 08:17:00;;;;;;;25.08;11.52;;;-0.90;99.90;;;;;;5087445;28;20073;-76
2023/01/26 08:19:26;;;;;;;33.83;14.38;;;-1.00;99.90;;;;;;5088079;28;20489;-74
2023/01/26 08:21:53;;;;;;;29.45;13.13;;;-1.00;99.90;;;;;;5075907;28;20086;-76
2023/01/26 08:24:19;;;;;;;32.38;14.13;;;-0.90;99.90;;;;;;5079787;28;20028;-76
2023/01/26 08:26:45;;;;;;;32.40;14.98;;;-0.90;99.90;;;;;;5088441;28;20050;-76
2023/01/26 08:29:11;;;;;;;31.58;13.48;;;-0.90;99.90;;;;;;5092460;28;20062;-75
2023/01/26 08:31:37;;;;;;;33.05;13.25;;;-0.90;99.90;;;;;;5091050;28;20024;-76
2023/01/26 08:34:03;;;;;;;33.45;13.48;;;-1.00;99.90;;;;;;5081179;28;20043;-76
2023/01/26 08:36:29;;;;;;;28.95;12.68;;;-1.00;99.90;;;;;;5092763;28;20031;-75
2023/01/26 08:38:55;;;;;;;28.92;12.88;;;-1.00;99.90;;;;;;5097571;28;20036;-74
2023/01/26 08:41:21;;;;;;;26.63;11.95;;;-1.00;99.90;;;;;;5074943;28;20497;-75
2023/01/26 08:43:48;;;;;;;26.60;11.63;;;-1.00;99.90;;;;;;5103544;28;20531;-75
2023/01/26 08:46:14;;;;;;;27.42;11.23;;;-1.00;99.90;;;;;;5087730;28;20071;-75
2023/01/26 08:48:40;;;;;;;26.05;11.55;;;-0.90;99.90;;;;;;5094401;28;20059;-74
2023/01/26 08:51:07;;;;;;;21.00;10.27;;;-0.90;99.90;;;;;;5097773;28;20059;-75
2023/01/26 08:53:34;;;;;;;32.15;11.55;;;-0.90;99.90;;;;;;5096619;28;20612;-75
2023/01/26 08:56:05;;;;;;;29.83;11.13;;;-0.80;99.90;;;;;;5096235;28;20036;-76
2023/01/26 08:58:32;;;;;;;25.67;11.25;;;-0.80;99.90;;;;;;5081110;28;20040;-76
2023/01/26 09:01:02;;;;;;;26.25;11.15;;;-0.80;99.90;;;;;;5085765;28;20093;-76
2023/01/26 09:03:28;;;;;;;27.60;12.02;;;-0.80;99.90;;;;;;5083705;28;20025;-76
2023/01/26 09:05:59;;;;;;;24.38;10.77;;;-0.70;99.90;;;;;;5088132;28;20104;-76
2023/01/26 09:08:25;;;;;;;24.80;11.45;;;-0.70;99.90;;;;;;5084242;28;20035;-76
2023/01/26 09:10:51;;;;;;;25.70;11.98;;;-0.70;99.90;;;;;;5090282;28;20036;-76
2023/01/26 09:13:17;;;;;;;25.77;11.25;;;-0.70;99.90;;;;;;5084402;28;20035;-76
2023/01/26 09:15:43;;;;;;;22.90;10.63;;;-0.60;99.90;;;;;;5086334;28;20119;-76
2023/01/26 09:18:10;;;;;;;24.70;10.43;;;-0.60;99.90;;;;;;5067158;28;20033;-76
2023/01/26 09:20:39;;;;;;;24.45;11.07;;;-0.60;99.90;;;;;;5095873;28;20036;-76
2023/01/26 09:23:06;;;;;;;26.10;11.13;;;-0.70;99.90;;;;;;5084562;28;20024;-76
2023/01/26 09:25:36;;;;;;;20.38;10.23;;;-0.70;99.90;;;;;;5082801;28;20027;-76
2023/01/26 09:28:02;;;;;;;25.92;11.63;;;-0.60;99.90;;;;;;5085510;28;20147;-76
2023/01/26 09:30:28;;;;;;;26.75;11.75;;;-0.60;99.90;;;;;;5087073;28;20025;-76
2023/01/26 09:33:00;;;;;;;24.10;10.63;;;-0.60;99.90;;;;;;5091264;28;20080;-76
2023/01/26 09:35:27;;;;;;;23.35;11.00;;;-0.50;99.90;;;;;;5088559;28;20139;-75
2023/01/26 09:37:54;;;;;;;25.48;10.85;;;-0.50;99.90;;;;;;5074380;28;20032;-77
2023/01/26 09:40:34;;;;;;;23.55;10.88;;;-0.50;99.90;;;;;;5071509;28;20032;-73
2023/01/26 09:43:21;;;;;;;25.20;10.07;;;-0.50;99.90;;;;;;5075854;28;20031;-75
2023/01/26 09:46:15;;;;;;;24.85;11.50;;;-0.40;99.90;;;;;;5074055;28;20492;-75
2023/01/26 09:49:09;;;;;;;24.15;10.98;;;-0.40;99.90;;;;;;5087342;28;20104;-75
2023/01/26 09:51:45;;;;;;;22.38;10.38;;;-0.30;99.90;;;;;;5034927;28;20447;-75
2023/01/26 09:54:32;;;;;;;23.38;10.40;;;-0.20;99.90;;;;;;5088414;28;20037;-75
2023/01/26 09:57:08;;;;;;;24.50;10.45;;;-0.20;99.90;;;;;;5076133;28;20025;-73
2023/01/26 10:00:01;;;;;;;23.70;10.35;;;-0.10;99.90;;;;;;5073528;28;20725;-76
2023/01/26 10:02:58;;;;;;;28.13;10.45;;;0.00;99.90;;;;;;5071457;28;20054;-75
2023/01/26 10:05:43;;;;;;;25.75;12.13;;;0.00;99.90;;;;;;5076345;28;20099;-75
2023/01/26 10:08:13;;;;;;;25.08;11.30;;;-0.10;99.90;;;;;;5085700;28;20016;-73
2023/01/26 10:10:45;;;;;;;25.35;11.38;;;-0.10;99.90;;;;;;5076431;28;20070;-73
2023/01/26 10:13:16;;;;;;;23.17;10.15;;;0.00;99.90;;;;;;5077668;28;20020;-75
2023/01/26 10:15:46;;;;;;;24.27;11.60;;;-0.10;99.90;;;;;;5072736;28;20031;-75
2023/01/26 10:18:52;;;;;;;24.67;10.85;;;0.00;99.90;;;;;;5089830;28;20029;-74
2023/01/26 10:21:27;;;;;;;20.83;10.02;;;0.00;99.90;;;;;;5057307;28;20102;-74
2023/01/26 10:23:54;;;;;;;22.33;9.75;;;0.00;99.90;;;;;;5087150;28;20024;-76
2023/01/26 10:26:22;;;;;;;25.63;10.00;;;0.10;99.90;;;;;;5092002;28;20038;-75
2023/01/26 10:28:51;;;;;;;20.42;9.38;;;0.10;99.90;;;;;;5086440;28;20637;-74
2023/01/26 10:31:21;;;;;;;21.92;9.32;;;0.00;99.90;;;;;;5080983;28;20028;-74
2023/01/26 10:33:51;;;;;;;20.42;9.57;;;0.00;99.90;;;;;;5078282;28;20050;-74
2023/01/26 10:36:18;;;;;;;21.35;10.05;;;-0.10;99.90;;;;;;5079895;28;20380;-74
2023/01/26 10:38:45;;;;;;;21.48;10.35;;;-0.20;99.90;;;;;;5074716;28;20478;-74
2023/01/26 10:41:17;;;;;;;23.20;10.13;;;-0.20;99.90;;;;;;5074828;28;20090;-74
2023/01/26 10:44:01;;;;;;;20.08;9.52;;;-0.20;99.90;;;;;;5074382;27;20024;-75
2023/01/26 10:46:45;;;;;;;23.08;9.90;;;-0.20;99.90;;;;;;5074777;28;20563;-76
2023/01/26 10:49:11;;;;;;;24.80;9.85;;;-0.30;99.90;;;;;;5074757;28;20035;-75
2023/01/26 10:51:40;;;;;;;25.48;10.15;;;-0.30;99.90;;;;;;5092831;28;20110;-74
2023/01/26 10:54:26;;;;;;;22.73;9.80;;;-0.20;99.90;;;;;;5074468;28;20473;-75
2023/01/26 10:57:06;;;;;;;22.95;9.95;;;-0.30;99.90;;;;;;5078286;28;20155;-74
2023/01/26 10:59:48;;;;;;;22.88;8.95;;;-0.20;99.90;;;;;;5079409;28;20028;-74
2023/01/26 11:02:14;;;;;;;21.10;9.60;;;-0.20;99.90;;;;;;5071576;28;20084;-74
2023/01/26 11:04:40;;;;;;;22.95;9.90;;;-0.20;99.90;;;;;;5073631;28;20032;-74
2023/01/26 11:07:26;;;;;;;21.20;9.82;;;-0.10;99.90;;;;;;5079260;28;20038;-74
2023/01/26 11:09:53;;;;;;;23.27;9.93;;;-0.10;99.90;;;;;;5078975;28;20056;-74
2023/01/26 11:12:21;;;;;;;21.65;9.57;;;0.00;99.90;;;;;;5082647;28;20062;-74
2023/01/26 11:15:04;;;;;;;23.95;10.10;;;0.00;99.90;;;;;;5080356;28;20020;-74
2023/01/26 11:18:02;;;;;;;21.75;9.68;;;0.00;99.90;;;;;;5081996;28;20054;-73
2023/01/26 11:20:43;;;;;;;24.63;10.02;;;0.00;99.90;;;;;;5072709;28;20837;-74
2023/01/26 11:23:40;;;;;;;22.23;10.60;;;0.00;99.90;;;;;;5072251;28;20029;-74
2023/01/26 11:26:30;;;;;;;29.40;11.57;;;0.00;99.90;;;;;;5074605;28;20037;-77
2023/01/26 11:29:20;;;;;;;26.45;12.07;;;0.00;99.90;;;;;;5076680;28;20476;-74
2023/01/26 11:32:04;;;;;;;25.67;11.45;;;-0.10;99.90;;;;;;5084738;28;20016;-75
2023/01/26 11:35:00;;;;;;;27.42;11.38;;;-0.10;99.90;;;;;;5090604;28;20436;-77
2023/01/26 11:37:50;;;;;;;21.67;10.30;;;-0.10;99.90;;;;;;5079887;28;20039;-75
2023/01/26 11:40:27;;;;;;;24.77;11.40;;;-0.10;99.90;;;;;;5082656;28;20035;-75
2023/01/26 11:43:12;;;;;;;26.50;11.57;;;0.00;99.90;;;;;;5072229;28;20554;-75
2023/01/26 11:46:09;;;;;;;27.83;10.63;;;0.00;99.90;;;;;;5088738;28;20549;-77
2023/01/26 11:49:12;;;;;;;27.27;12.93;;;0.00;99.90;;;;;;5080206;28;20289;-74
2023/01/26 11:51:48;;;;;;;27.33;11.77;;;0.00;99.90;;;;;;5086755;28;20027;-76
2023/01/26 11:54:25;;;;;;;26.88;11.98;;;0.00;99.90;;;;;;5078466;28;20050;-76
2023/01/26 11:57:13;;;;;;;29.80;10.93;;;-0.10;99.90;;;;;;5086395;28;20034;-76
2023/01/26 11:59:48;;;;;;;25.92;11.73;;;0.00;99.90;;;;;;5097404;28;20618;-75
2023/01/26 12:02:33;;;;;;;28.50;11.85;;;0.10;99.90;;;;;;5100206;28;20032;-75
2023/01/26 12:05:14;;;;;;;25.80;11.35;;;0.10;99.90;;;;;;5092798;28;20024;-75
2023/01/26 12:08:03;;;;;;;29.30;12.48;;;0.10;99.90;;;;;;5084382;28;20027;-75
2023/01/26 12:10:35;;;;;;;27.75;11.30;;;0.10;99.90;;;;;;5087243;28;20085;-76
2023/01/26 12:13:19;;;;;;;22.70;10.60;;;0.10;99.90;;;;;;5088156;28;20039;-75
2023/01/26 12:15:53;;;;;;;28.25;11.07;;;0.10;99.90;;;;;;5101735;28;20510;-76
2023/01/26 12:18:26;;;;;;;;;;;0.10;99.90;;;;;;5081756;28;20568;-76
2023/01/26 12:21:09;;;;;;;29.30;11.75;;;0.10;99.90;;;;;;5078106;28;19908;-76
2023/01/26 12:23:56;;;;;;;31.40;13.35;;;0.20;99.90;;;;;;5092032;28;20165;-76
2023/01/26 12:26:27;;;;;;;32.30;13.73;;;0.10;99.90;;;;;;5083188;28;20055;-76
2023/01/26 12:29:08;;;;;;;29.35;12.57;;;0.10;99.90;;;;;;5089673;28;20391;-76
2023/01/26 12:31:35;;;;;;;28.23;11.80;;;0.00;99.90;;;;;;5084236;28;20031;-76
2023/01/26 12:34:02;;;;;;;28.65;12.02;;;0.00;99.90;;;;;;5088942;28;20024;-75
2023/01/26 12:37:07;;;;;;;32.67;11.95;;;-0.10;99.90;;;;;;5081622;28;20116;-76
2023/01/26 12:39:34;;;;;;;27.23;11.90;;;0.00;99.90;;;;;;5046279;28;20077;-75
2023/01/26 12:42:42;;;;;;;26.77;11.38;;;-0.10;99.90;;;;;;5095276;28;20472;-76
2023/01/26 12:45:24;;;;;;;22.83;11.02;;;-0.10;99.90;;;;;;5076808;28;20043;-76
2023/01/26 12:48:11;;;;;;;27.50;12.43;;;-0.10;99.90;;;;;;5086564;28;20387;-76
2023/01/26 12:50:46;;;;;;;29.50;11.60;;;0.00;99.90;;;;;;5081899;28;20024;-75
2023/01/26 12:53:30;;;;;;;27.40;13.35;;;-0.10;99.90;;;;;;5091429;28;20031;-75
2023/01/26 12:56:10;;;;;;;25.05;11.27;;;-0.20;99.90;;;;;;5088857;28;20024;-76
2023/01/26 12:58:41;;;;;;;28.67;11.98;;;-0.20;99.90;;;;;;5092077;28;20384;-75
2023/01/26 13:01:19;;;;;;;27.35;11.85;;;-0.30;99.90;;;;;;5083617;28;20062;-76
2023/01/26 13:03:56;;;;;;;30.20;13.27;;;-0.30;99.90;;;;;;5077260;28;20020;-75
2023/01/26 13:06:27;;;;;;;36.67;15.50;;;-0.30;99.90;;;;;;5079631;28;20029;-76
2023/01/26 13:09:22;;;;;;;30.70;13.15;;;-0.30;99.90;;;;;;5087207;28;20447;-76
2023/01/26 13:11:57;;;;;;;33.43;13.30;;;-0.20;99.90;;;;;;5078306;28;20081;-76
2023/01/26 13:14:23;;;;;;;28.00;12.32;;;-0.20;99.90;;;;;;5083331;28;20736;-74
2023/01/26 13:16:50;;;;;;;30.92;13.20;;;-0.20;99.90;;;;;;5078474;28;20029;-75
2023/01/26 13:19:50;;;;;;;32.20;14.00;;;-0.20;99.90;;;;;;5081714;28;20404;-76
2023/01/26 13:22:22;;;;;;;32.92;12.95;;;-0.20;99.90;;;;;;5084429;28;20036;-76
2023/01/26 13:24:56;;;;;;;33.47;14.00;;;-0.10;99.90;;;;;;5088168;28;20024;-76
2023/01/26 13:27:39;;;;;;;33.20;14.15;;;-0.10;99.90;;;;;;5093038;28;20505;-76
2023/01/26 13:30:23;;;;;;;30.40;13.32;;;-0.10;99.90;;;;;;5096720;28;20106;-76
2023/01/26 13:32:52;;;;;;;33.38;14.05;;;-0.10;99.90;;;;;;5093483;28;20472;-75
2023/01/26 13:35:21;;;;;;;32.88;14.23;;;-0.10;99.90;;;;;;5098922;28;20255;-76
2023/01/26 13:38:08;;;;;;;37.95;16.55;;;-0.10;99.90;;;;;;5100071;28;20053;-75
2023/01/26 13:40:37;;;;;;;30.73;14.20;;;-0.10;99.90;;;;;;5111579;28;20035;-75
2023/01/26 13:43:21;;;;;;;34.95;14.13;;;-0.10;99.90;;;;;;5096252;28;20032;-75